Airfield :
LOGIN :

Register | Disclaimer

   EN    FR    IT 

 










Legend :    VFR   Marginal VFR   IFR   Intensive IFR   Very Intensive IFR
Visi :
Ceiling :
>= 8 km
>= 3000ft
5 to 8 km
1000 to 3000 ft
1500m to 5 km
500 to 1000 ft
800 to 1500m
200 to 500 ft
< 800m
< 200 ft
Symbols :   Thunderstorms  Fog  Heavy snow  Heavy precipitations  Wind > 20 kt
SIGMETs :     Misc.  Thunderstorms  Icing  Turbulence  Mountain Waves  Volcanic Ashes






- Airport Elevation : 352 ft
- IATA code : KSD


ESOK - Karlstad

CURRENT METAR :
  • 280550Z AUTO 18008KT 4600 -SN FEW008/// SCT009/// OVC011/// 00/M00 Q1012

EXPIRED METARs :
  • 280520Z AUTO 18007KT 8000 -RASN FEW007/// SCT008/// OVC010/// 00/M00 Q1012
  • 280450Z AUTO 18009KT 6000 -SN OVC006/// 00/M01 Q1013 REUP RESHUP REFZRA
  • 280420Z AUTO 18008KT 9999 OVC007/// 00/M01 Q1013 REUP
  • 280350Z AUTO 18008KT 9999 OVC008/// 00/M01 Q1013
  • 280320Z AUTO 19010KT 9999 FEW008/// OVC009/// 00/M01 Q1013
  • 280250Z AUTO 19011KT 9999 FEW008/// OVC009/// 00/M01 Q1013
  • 280220Z AUTO 18011KT 9999 FEW007/// OVC009/// 00/M01 Q1014
  • 280150Z AUTO 18011KT 9999 FEW007/// SCT008/// OVC010/// 00/M01 Q1014
  • 280120Z AUTO 18011KT 9999 FEW009/// OVC010/// 00/M01 Q1014

Expired Forecast.



MET'MAP, your aeronautical weather chart ! - Copyright ORBIFLY December 2007 - Disclaimer

ORBIFLY MET'MAP TEAM :

Programming & Development : Alexandra Zaïnal
Original concept : Baudouin d'Aumeries
Technical & hardware support : Manuel Goepfert
Assistance : Marc-Olivier Méhu




SOURCES & CREDITS :

   NOAA